createdAt,value
2023-04-16T00:01:50.084Z,9.40
2023-04-16T00:04:17.498Z,9.40
2023-04-16T00:06:46.038Z,9.40
2023-04-16T00:09:13.870Z,9.30
2023-04-16T00:11:41.141Z,9.40
2023-04-16T00:14:08.319Z,9.40
2023-04-16T00:16:36.862Z,9.40
2023-04-16T00:19:07.038Z,9.40
2023-04-16T00:21:34.676Z,9.40
2023-04-16T00:24:03.362Z,9.40
2023-04-16T00:26:30.537Z,9.40
2023-04-16T00:28:58.052Z,9.50
2023-04-16T00:31:32.571Z,9.50
2023-04-16T00:34:04.837Z,9.50
2023-04-16T00:36:52.555Z,9.50
2023-04-16T00:39:19.907Z,9.50
2023-04-16T00:41:49.216Z,9.50
2023-04-16T00:44:16.453Z,9.50
2023-04-16T00:46:45.972Z,9.50
2023-04-16T00:49:15.559Z,9.40
2023-04-16T00:51:44.977Z,9.50
2023-04-16T00:54:13.025Z,9.50
2023-04-16T00:56:40.102Z,9.50
2023-04-16T00:59:07.969Z,9.50
2023-04-16T01:01:35.306Z,9.40
2023-04-16T01:04:02.625Z,9.50
2023-04-16T01:06:29.771Z,9.50
2023-04-16T01:08:56.773Z,9.50
2023-04-16T01:11:24.109Z,9.50
2023-04-16T01:13:51.098Z,9.50
2023-04-16T01:16:18.476Z,9.50
2023-04-16T01:18:48.778Z,9.50
2023-04-16T01:21:15.786Z,9.50
2023-04-16T01:23:45.529Z,9.50
2023-04-16T01:26:12.811Z,9.50
2023-04-16T01:28:40.490Z,9.50
2023-04-16T01:31:07.509Z,9.50
2023-04-16T01:33:34.952Z,9.50
2023-04-16T01:36:01.967Z,9.50
2023-04-16T01:38:28.919Z,9.50
2023-04-16T01:40:57.914Z,9.50
2023-04-16T01:43:25.320Z,9.50
2023-04-16T01:45:54.193Z,9.50
2023-04-16T01:48:21.202Z,9.50
2023-04-16T01:50:48.668Z,9.50
2023-04-16T01:53:16.851Z,9.50
2023-04-16T01:55:43.801Z,9.50
2023-04-16T01:58:11.012Z,9.50
2023-04-16T02:00:41.182Z,9.50
2023-04-16T02:03:08.287Z,9.60
2023-04-16T02:05:35.917Z,9.60
2023-04-16T02:08:03.372Z,9.60
2023-04-16T02:10:30.893Z,9.60
2023-04-16T02:12:58.619Z,9.60
2023-04-16T02:15:26.529Z,9.60
2023-04-16T02:17:57.425Z,9.60
2023-04-16T02:20:26.342Z,9.70
2023-04-16T02:22:54.016Z,9.70
2023-04-16T02:25:21.137Z,9.70
2023-04-16T02:27:48.573Z,9.70
2023-04-16T02:30:18.090Z,9.60
2023-04-16T02:32:46.307Z,9.70
2023-04-16T02:35:13.590Z,9.70
2023-04-16T02:37:41.068Z,9.70
2023-04-16T02:40:08.797Z,9.70
2023-04-16T02:42:36.013Z,9.70
2023-04-16T02:45:03.288Z,9.70
2023-04-16T02:47:30.324Z,9.70
2023-04-16T02:49:57.295Z,9.70
2023-04-16T02:52:24.627Z,9.70
2023-04-16T02:54:51.633Z,9.70
2023-04-16T02:57:19.579Z,9.70
2023-04-16T02:59:46.649Z,9.70
2023-04-16T03:02:15.117Z,9.70
2023-04-16T03:04:43.122Z,9.80
2023-04-16T03:07:11.200Z,9.70
2023-04-16T03:09:38.290Z,9.80
2023-04-16T03:12:05.591Z,9.80
2023-04-16T03:14:32.718Z,9.80
2023-04-16T03:16:59.674Z,9.80
2023-04-16T03:19:26.765Z,9.80
2023-04-16T03:21:54.637Z,9.80
2023-04-16T03:24:21.882Z,9.90
2023-04-16T03:26:48.888Z,9.90
2023-04-16T03:29:15.998Z,9.90
2023-04-16T03:31:43.353Z,9.90
2023-04-16T03:34:10.907Z,9.90
2023-04-16T03:36:38.976Z,9.90
2023-04-16T03:39:07.003Z,9.90
2023-04-16T03:41:34.177Z,9.90
2023-04-16T03:44:02.013Z,9.90
2023-04-16T03:46:31.070Z,9.90
2023-04-16T03:48:59.114Z,9.90
2023-04-16T03:51:26.594Z,9.90
2023-04-16T03:53:54.951Z,9.80
2023-04-16T03:56:21.902Z,9.90
2023-04-16T03:58:49.335Z,9.90
2023-04-16T04:01:20.758Z,9.90
2023-04-16T04:03:48.529Z,9.90
2023-04-16T04:06:15.905Z,9.90
2023-04-16T04:08:43.006Z,9.90
2023-04-16T04:11:11.055Z,9.90
2023-04-16T04:13:39.042Z,9.90
2023-04-16T04:16:06.541Z,9.90
2023-04-16T04:18:34.097Z,9.90
2023-04-16T04:21:06.086Z,9.90
2023-04-16T04:23:35.026Z,9.90
2023-04-16T04:26:03.944Z,9.90
2023-04-16T04:28:33.796Z,9.90
2023-04-16T04:31:01.516Z,9.90
2023-04-16T04:33:29.191Z,9.80
2023-04-16T04:35:56.430Z,9.80
2023-04-16T04:38:25.383Z,9.80
2023-04-16T04:40:52.923Z,9.80
2023-04-16T04:43:20.510Z,9.80
2023-04-16T04:45:49.061Z,9.80
2023-04-16T04:48:16.790Z,9.80
2023-04-16T04:50:44.880Z,9.80
2023-04-16T04:53:12.044Z,9.90
2023-04-16T04:55:39.355Z,9.80
2023-04-16T04:58:07.656Z,9.80
2023-04-16T05:00:37.958Z,9.80
2023-04-16T05:03:07.024Z,9.90
2023-04-16T05:05:34.090Z,9.90
2023-04-16T05:08:01.744Z,9.90
2023-04-16T05:10:29.442Z,9.90
2023-04-16T05:12:56.385Z,10.00
2023-04-16T05:15:28.474Z,10.00
2023-04-16T05:17:56.566Z,10.00
2023-04-16T05:20:26.934Z,10.00
2023-04-16T05:22:55.445Z,10.10
2023-04-16T05:25:23.278Z,10.10
2023-04-16T05:27:50.498Z,10.10
2023-04-16T05:30:18.642Z,10.20
2023-04-16T05:32:46.053Z,10.20
2023-04-16T05:35:13.930Z,10.30
2023-04-16T05:37:43.100Z,10.30
2023-04-16T05:40:12.464Z,10.30
2023-04-16T05:42:40.503Z,10.30
2023-04-16T05:45:08.533Z,10.30
2023-04-16T05:47:35.869Z,10.20
2023-04-16T05:50:04.024Z,10.20
2023-04-16T05:52:31.075Z,10.20
2023-04-16T05:55:03.914Z,10.20
2023-04-16T05:57:33.078Z,10.20
2023-04-16T06:00:00.293Z,10.20
2023-04-16T06:02:30.750Z,10.20
2023-04-16T06:04:57.908Z,10.20
2023-04-16T06:07:25.014Z,10.20
2023-04-16T06:09:52.153Z,10.20
2023-04-16T06:12:19.169Z,10.30
2023-04-16T06:14:46.311Z,10.30
2023-04-16T06:17:13.419Z,10.30
2023-04-16T06:19:44.158Z,10.30
2023-04-16T06:22:11.393Z,10.30
2023-04-16T06:24:38.482Z,10.30
2023-04-16T06:27:06.560Z,10.20
2023-04-16T06:29:40.679Z,10.30
2023-04-16T06:32:13.713Z,10.30
2023-04-16T06:34:44.374Z,10.30
2023-04-16T06:37:13.551Z,10.40
2023-04-16T06:39:43.040Z,10.30
2023-04-16T06:42:10.505Z,10.40
2023-04-16T06:44:37.794Z,10.30
2023-04-16T06:47:04.989Z,10.40
2023-04-16T06:49:33.123Z,10.50
2023-04-16T06:52:00.592Z,10.60
2023-04-16T06:54:27.942Z,10.60
2023-04-16T06:56:55.177Z,10.70
2023-04-16T06:59:22.520Z,10.80
2023-04-16T07:01:49.733Z,10.80
2023-04-16T07:04:21.904Z,10.90
2023-04-16T07:06:49.022Z,11.00
2023-04-16T07:09:17.998Z,11.10
2023-04-16T07:11:49.887Z,11.10
2023-04-16T07:14:17.706Z,11.20
2023-04-16T07:16:45.044Z,11.20
2023-04-16T07:19:12.143Z,11.30
2023-04-16T07:21:44.185Z,11.30
2023-04-16T07:24:14.147Z,11.30
2023-04-16T07:26:41.454Z,11.30
2023-04-16T07:29:08.728Z,11.40
2023-04-16T07:31:35.978Z,11.30
2023-04-16T07:34:04.160Z,11.30
2023-04-16T07:36:32.583Z,11.40
2023-04-16T07:39:00.440Z,11.40
2023-04-16T07:41:29.583Z,11.60
2023-04-16T07:43:58.062Z,11.70
2023-04-16T07:46:28.249Z,11.80
2023-04-16T07:48:58.368Z,11.90
2023-04-16T07:51:26.417Z,12.00
2023-04-16T07:53:54.392Z,12.10
2023-04-16T07:56:21.404Z,12.10
2023-04-16T07:58:49.029Z,12.10
2023-04-16T08:01:17.734Z,12.20
2023-04-16T08:03:45.667Z,12.40
2023-04-16T08:06:12.984Z,12.50
2023-04-16T08:08:40.632Z,12.60
2023-04-16T08:11:07.889Z,12.50
2023-04-16T08:13:35.327Z,12.80
2023-04-16T08:16:02.541Z,12.90
2023-04-16T08:18:29.673Z,13.10
2023-04-16T08:20:59.705Z,13.20
2023-04-16T08:23:27.181Z,13.40
2023-04-16T08:25:58.157Z,13.50
2023-04-16T08:28:26.208Z,13.60
2023-04-16T08:30:53.516Z,13.70
2023-04-16T08:33:21.532Z,13.80
2023-04-16T08:35:48.539Z,13.90
2023-04-16T08:38:15.502Z,13.90
2023-04-16T08:40:43.042Z,14.00
2023-04-16T08:43:13.871Z,13.90
2023-04-16T08:45:42.775Z,13.90
2023-04-16T08:48:12.917Z,13.80
2023-04-16T08:50:41.232Z,13.90
2023-04-16T08:53:11.345Z,13.90
2023-04-16T08:55:48.132Z,14.00
2023-04-16T08:58:22.811Z,14.30
2023-04-16T09:00:53.138Z,14.60
2023-04-16T09:03:21.709Z,14.90
2023-04-16T09:05:51.177Z,15.10
2023-04-16T09:08:18.992Z,15.30
2023-04-16T09:10:46.150Z,15.30
2023-04-16T09:13:15.826Z,15.20
2023-04-16T09:15:43.301Z,15.00
2023-04-16T09:18:12.053Z,14.90
2023-04-16T09:20:39.834Z,14.90
2023-04-16T09:23:06.918Z,14.90
2023-04-16T09:25:38.596Z,14.90
2023-04-16T09:28:05.760Z,15.00
2023-04-16T09:30:42.526Z,14.90
2023-04-16T09:33:23.331Z,14.90
2023-04-16T09:35:52.032Z,14.90
2023-04-16T09:38:20.792Z,15.10
2023-04-16T09:40:48.222Z,15.20
2023-04-16T09:43:19.178Z,15.30
2023-04-16T09:45:53.439Z,15.30
2023-04-16T09:48:34.212Z,15.30
2023-04-16T09:51:02.903Z,15.30
2023-04-16T09:53:31.609Z,15.40
2023-04-16T09:56:00.244Z,15.50
2023-04-16T09:58:27.801Z,15.60
2023-04-16T10:01:03.362Z,15.70
2023-04-16T10:03:35.209Z,15.90
2023-04-16T10:06:16.049Z,15.90
2023-04-16T10:08:44.318Z,16.00
2023-04-16T10:11:11.410Z,16.30
2023-04-16T10:13:38.494Z,16.50
2023-04-16T10:16:07.037Z,16.60
2023-04-16T10:18:40.426Z,16.70
2023-04-16T10:21:08.280Z,16.80
2023-04-16T10:23:35.400Z,16.90
2023-04-16T10:26:02.501Z,16.90
2023-04-16T10:28:31.040Z,17.00
2023-04-16T10:30:58.691Z,17.00
2023-04-16T10:33:29.632Z,17.00
2023-04-16T10:36:31.078Z,16.90
2023-04-16T10:39:01.667Z,17.00
2023-04-16T10:41:29.030Z,17.10
2023-04-16T10:44:10.053Z,17.30
2023-04-16T10:46:41.803Z,17.40
2023-04-16T10:49:19.375Z,17.30
2023-04-16T10:52:00.189Z,17.40
2023-04-16T10:54:31.652Z,17.30
2023-04-16T10:57:01.625Z,17.30
2023-04-16T10:59:40.386Z,17.20
2023-04-16T11:02:09.748Z,17.20
2023-04-16T11:04:38.633Z,17.30
2023-04-16T11:07:14.992Z,17.50
2023-04-16T11:09:54.047Z,17.70
2023-04-16T11:12:27.190Z,17.80
2023-04-16T11:15:01.394Z,17.90
2023-04-16T11:17:33.437Z,17.90
2023-04-16T11:20:02.929Z,17.80
2023-04-16T11:22:31.354Z,17.80
2023-04-16T11:24:58.372Z,17.90
2023-04-16T11:27:30.871Z,17.90
2023-04-16T11:30:17.684Z,17.80
2023-04-16T11:32:45.674Z,17.70
2023-04-16T11:35:17.660Z,17.60
2023-04-16T11:37:44.994Z,17.60
2023-04-16T11:40:12.692Z,17.80
2023-04-16T11:42:41.596Z,18.00
2023-04-16T11:45:10.429Z,18.00
2023-04-16T11:47:46.109Z,18.00
2023-04-16T11:50:30.997Z,17.90
2023-04-16T11:53:04.850Z,17.90
2023-04-16T11:55:31.873Z,18.00
2023-04-16T11:58:11.713Z,18.00
2023-04-16T12:00:39.212Z,17.90
2023-04-16T12:03:06.603Z,17.90
2023-04-16T12:05:39.040Z,17.90
2023-04-16T12:08:11.422Z,17.90
2023-04-16T12:10:53.764Z,17.90
2023-04-16T12:13:23.024Z,17.70
2023-04-16T12:15:54.932Z,17.50
2023-04-16T12:18:24.302Z,17.20
2023-04-16T12:20:52.397Z,17.00
2023-04-16T12:23:27.164Z,16.90
2023-04-16T12:25:55.221Z,16.90
2023-04-16T12:28:29.228Z,17.00
2023-04-16T12:30:56.991Z,17.10
2023-04-16T12:33:24.539Z,17.10
2023-04-16T12:35:52.101Z,17.20
2023-04-16T12:38:23.607Z,17.20
2023-04-16T12:40:52.111Z,17.30
2023-04-16T12:43:24.267Z,17.40
2023-04-16T12:45:53.347Z,17.60
2023-04-16T12:48:20.819Z,17.60
2023-04-16T12:50:48.511Z,17.60
2023-04-16T12:53:15.980Z,17.60
2023-04-16T12:55:43.036Z,17.50
2023-04-16T12:58:12.453Z,17.30
2023-04-16T13:00:40.514Z,17.00
2023-04-16T13:03:08.501Z,16.80
2023-04-16T13:05:36.760Z,16.50
2023-04-16T13:08:06.630Z,16.30
2023-04-16T13:10:33.645Z,16.20
2023-04-16T13:13:00.979Z,16.10
2023-04-16T13:15:30.873Z,16.00
2023-04-16T13:17:59.300Z,16.10
2023-04-16T13:20:26.580Z,16.00
2023-04-16T13:22:54.364Z,16.10
2023-04-16T13:25:24.366Z,16.20
2023-04-16T13:27:51.519Z,16.30
2023-04-16T13:30:20.989Z,16.40
2023-04-16T13:32:48.136Z,16.50
2023-04-16T13:35:17.090Z,16.50
2023-04-16T13:37:44.408Z,16.50
2023-04-16T13:40:11.589Z,16.40
2023-04-16T13:42:40.599Z,16.40
2023-04-16T13:45:13.527Z,16.50
2023-04-16T13:47:42.508Z,16.30
2023-04-16T13:50:10.618Z,16.20
2023-04-16T13:52:38.254Z,16.00
2023-04-16T13:55:06.839Z,15.90
2023-04-16T13:57:33.864Z,15.80
2023-04-16T14:00:03.585Z,15.80
2023-04-16T14:02:30.860Z,15.90
2023-04-16T14:04:57.957Z,15.80
2023-04-16T14:07:27.384Z,15.90
2023-04-16T14:09:54.446Z,16.00
2023-04-16T14:12:21.568Z,16.10
2023-04-16T14:14:49.365Z,16.10
2023-04-16T14:17:16.938Z,16.20
2023-04-16T14:19:43.987Z,16.20
2023-04-16T14:22:11.217Z,16.10
2023-04-16T14:24:40.573Z,16.00
2023-04-16T14:27:08.590Z,16.00
2023-04-16T14:29:36.479Z,16.20
2023-04-16T14:32:03.786Z,16.40
2023-04-16T14:34:31.119Z,16.40
2023-04-16T14:36:58.611Z,16.40
2023-04-16T14:39:25.953Z,16.50
2023-04-16T14:41:54.569Z,16.50
2023-04-16T14:44:22.727Z,16.50
2023-04-16T14:46:51.777Z,16.40
2023-04-16T14:49:19.242Z,16.40
2023-04-16T14:51:47.494Z,16.40
2023-04-16T14:54:15.020Z,16.50
2023-04-16T14:56:42.866Z,16.70
2023-04-16T14:59:13.113Z,16.80
2023-04-16T15:01:41.112Z,16.80
2023-04-16T15:04:10.405Z,16.80
2023-04-16T15:06:38.448Z,16.80
2023-04-16T15:09:07.038Z,16.50
2023-04-16T15:11:34.177Z,16.30
2023-04-16T15:14:01.653Z,16.10
2023-04-16T15:16:30.687Z,16.00
2023-04-16T15:18:58.459Z,15.90
2023-04-16T15:21:26.799Z,15.70
2023-04-16T15:23:54.042Z,15.50
2023-04-16T15:26:21.107Z,15.30
2023-04-16T15:28:50.103Z,15.20
2023-04-16T15:31:22.373Z,15.10
2023-04-16T15:33:50.617Z,15.20
2023-04-16T15:36:19.883Z,15.10
2023-04-16T15:38:47.357Z,15.20
2023-04-16T15:41:15.022Z,15.20
2023-04-16T15:43:42.374Z,15.20
2023-04-16T15:46:10.210Z,15.20
2023-04-16T15:48:49.106Z,15.30
2023-04-16T15:51:16.437Z,15.40
2023-04-16T15:53:45.359Z,15.40
2023-04-16T15:56:12.402Z,15.40
2023-04-16T15:58:39.717Z,15.50
2023-04-16T16:01:07.064Z,15.50
2023-04-16T16:03:36.203Z,15.30
2023-04-16T16:06:07.748Z,15.30
2023-04-16T16:08:39.726Z,15.40
2023-04-16T16:11:07.425Z,15.40
2023-04-16T16:13:35.902Z,15.30
2023-04-16T16:16:06.644Z,15.00
2023-04-16T16:18:35.542Z,14.90
2023-04-16T16:21:02.691Z,14.80
2023-04-16T16:23:29.736Z,14.90
2023-04-16T16:25:57.503Z,14.80
2023-04-16T16:28:25.571Z,14.60
2023-04-16T16:30:55.660Z,14.70
2023-04-16T16:33:24.654Z,14.60
2023-04-16T16:35:51.920Z,14.50
2023-04-16T16:38:19.187Z,14.40
2023-04-16T16:40:47.132Z,14.30
2023-04-16T16:43:14.468Z,14.20
2023-04-16T16:45:44.165Z,14.10
2023-04-16T16:48:11.369Z,14.00
2023-04-16T16:50:38.546Z,14.00
2023-04-16T16:53:08.923Z,13.90
2023-04-16T16:55:36.381Z,13.80
2023-04-16T16:58:03.593Z,13.80
2023-04-16T17:00:30.589Z,13.70
2023-04-16T17:03:00.554Z,13.60
2023-04-16T17:05:31.181Z,13.60
2023-04-16T17:07:58.679Z,13.50
2023-04-16T17:10:27.343Z,13.40
2023-04-16T17:12:55.036Z,13.30
2023-04-16T17:15:22.152Z,13.30
2023-04-16T17:17:49.259Z,13.20
2023-04-16T17:20:17.329Z,13.10
2023-04-16T17:22:44.752Z,13.10
2023-04-16T17:25:13.761Z,13.10
2023-04-16T17:27:41.630Z,13.00
2023-04-16T17:30:10.181Z,13.00
2023-04-16T17:32:37.455Z,13.00
2023-04-16T17:35:07.106Z,12.90
2023-04-16T17:37:35.298Z,12.80
2023-04-16T17:40:07.740Z,12.70
2023-04-16T17:42:35.492Z,12.60
2023-04-16T17:45:05.369Z,12.60
2023-04-16T17:47:40.043Z,12.50
2023-04-16T17:50:09.293Z,12.50
2023-04-16T17:52:40.436Z,12.40
2023-04-16T17:55:11.967Z,12.30
2023-04-16T17:57:40.337Z,12.30
2023-04-16T18:00:16.208Z,12.20
2023-04-16T18:02:44.000Z,12.10
2023-04-16T18:05:12.382Z,12.00
2023-04-16T18:07:39.471Z,12.00
2023-04-16T18:10:07.375Z,12.00
2023-04-16T18:12:34.624Z,12.00
2023-04-16T18:15:02.273Z,11.90
2023-04-16T18:17:30.337Z,11.90
2023-04-16T18:19:57.639Z,12.00
2023-04-16T18:22:27.041Z,12.00
2023-04-16T18:24:58.128Z,12.00
2023-04-16T18:27:25.319Z,12.00
2023-04-16T18:29:55.430Z,12.00
2023-04-16T18:32:30.864Z,12.00
2023-04-16T18:35:01.213Z,11.90
2023-04-16T18:37:32.796Z,11.80
2023-04-16T18:40:00.497Z,11.60
2023-04-16T18:42:30.798Z,11.60
2023-04-16T18:47:26.520Z,11.60
2023-04-16T18:49:53.871Z,11.50
2023-04-16T18:52:21.028Z,11.60
2023-04-16T18:54:51.256Z,11.60
2023-04-16T18:57:20.678Z,11.60
2023-04-16T18:59:48.258Z,11.70
2023-04-16T19:02:15.758Z,11.70
2023-04-16T19:04:43.021Z,11.70
2023-04-16T19:07:11.916Z,11.70
2023-04-16T19:09:39.174Z,11.70
2023-04-16T19:12:06.487Z,11.70
2023-04-16T19:14:34.568Z,11.70
2023-04-16T19:17:01.598Z,11.60
2023-04-16T19:19:29.134Z,11.80
2023-04-16T19:21:56.679Z,11.80
2023-04-16T19:24:23.816Z,11.80
2023-04-16T19:26:52.298Z,11.80
2023-04-16T19:29:19.710Z,11.80
2023-04-16T19:31:47.367Z,11.80
2023-04-16T19:34:17.206Z,11.80
2023-04-16T19:36:53.055Z,11.80
2023-04-16T19:39:20.674Z,11.80
2023-04-16T19:41:49.413Z,11.80
2023-04-16T19:44:17.195Z,11.80
2023-04-16T19:46:44.646Z,11.70
2023-04-16T19:49:12.087Z,11.70
2023-04-16T19:51:39.724Z,11.70
2023-04-16T19:54:07.347Z,11.60
2023-04-16T19:56:34.642Z,11.60
2023-04-16T19:59:02.721Z,11.60
2023-04-16T20:01:33.146Z,11.60
2023-04-16T20:04:00.792Z,11.50
2023-04-16T20:06:30.926Z,11.50
2023-04-16T20:08:58.525Z,11.50
2023-04-16T20:11:25.597Z,11.50
2023-04-16T20:13:53.084Z,11.50
2023-04-16T20:16:23.500Z,11.40
2023-04-16T20:18:54.474Z,11.40
2023-04-16T20:21:23.216Z,11.40
2023-04-16T20:23:50.771Z,11.30
2023-04-16T20:26:18.520Z,11.40
2023-04-16T20:28:46.142Z,11.40
2023-04-16T20:31:14.334Z,11.40
2023-04-16T20:33:41.949Z,11.40
2023-04-16T20:36:12.191Z,11.40
2023-04-16T20:38:39.828Z,11.40
2023-04-16T20:41:10.409Z,11.30
2023-04-16T20:43:42.070Z,11.30
2023-04-16T20:46:10.145Z,11.30
2023-04-16T20:48:38.686Z,11.30
2023-04-16T20:51:08.002Z,11.20
2023-04-16T20:53:40.122Z,11.20
2023-04-16T20:56:09.226Z,11.10
2023-04-16T20:58:36.634Z,11.10
2023-04-16T21:01:06.020Z,11.10
2023-04-16T21:03:33.866Z,11.00
2023-04-16T21:06:01.940Z,11.10
2023-04-16T21:08:30.414Z,11.00
2023-04-16T21:10:57.948Z,11.00
2023-04-16T21:13:25.636Z,11.00
2023-04-16T21:15:52.951Z,11.00
2023-04-16T21:18:20.122Z,10.90
2023-04-16T21:20:47.235Z,10.80
2023-04-16T21:23:14.361Z,10.80
2023-04-16T21:25:41.648Z,10.70
2023-04-16T21:28:09.357Z,10.70
2023-04-16T21:30:37.180Z,10.70
2023-04-16T21:33:05.083Z,10.70
2023-04-16T21:35:33.535Z,10.60
2023-04-16T21:38:01.818Z,10.60
2023-04-16T21:40:30.250Z,10.60
2023-04-16T21:42:58.772Z,10.60
2023-04-16T21:45:26.286Z,10.60
2023-04-16T21:47:54.340Z,10.60
2023-04-16T21:50:21.429Z,10.60
2023-04-16T21:52:49.405Z,10.70
2023-04-16T21:55:16.893Z,10.60
2023-04-16T21:57:46.093Z,10.60
2023-04-16T22:00:15.194Z,10.50
2023-04-16T22:02:43.680Z,10.50
2023-04-16T22:05:12.513Z,10.40
2023-04-16T22:07:39.755Z,10.40
2023-04-16T22:10:08.809Z,10.40
2023-04-16T22:12:39.496Z,10.40
2023-04-16T22:15:07.296Z,10.40
2023-04-16T22:17:34.437Z,10.30
2023-04-16T22:20:12.847Z,10.30
2023-04-16T22:22:43.507Z,10.30
2023-04-16T22:25:12.081Z,10.30
2023-04-16T22:27:39.636Z,10.30
2023-04-16T22:30:08.245Z,10.30
2023-04-16T22:32:35.448Z,10.30
2023-04-16T22:35:04.743Z,10.20
2023-04-16T22:37:32.484Z,10.20
2023-04-16T22:39:59.809Z,10.20
2023-04-16T22:42:27.672Z,10.10
2023-04-16T22:44:55.572Z,10.10
2023-04-16T22:47:22.919Z,10.00
2023-04-16T22:49:50.236Z,10.00
2023-04-16T22:52:17.494Z,9.90
2023-04-16T22:54:44.908Z,9.80
2023-04-16T22:57:12.051Z,9.80
2023-04-16T22:59:39.540Z,9.80
2023-04-16T23:02:06.833Z,9.80
2023-04-16T23:04:33.979Z,9.80
2023-04-16T23:07:01.512Z,9.90
2023-04-16T23:09:30.041Z,9.90
2023-04-16T23:11:58.469Z,9.80
2023-04-16T23:14:26.502Z,9.80
2023-04-16T23:16:53.915Z,9.80
2023-04-16T23:19:21.654Z,9.90
2023-04-16T23:21:49.039Z,9.90
2023-04-16T23:24:17.135Z,9.90
2023-04-16T23:26:44.761Z,9.90
2023-04-16T23:29:11.998Z,9.90
2023-04-16T23:31:39.404Z,9.90
2023-04-16T23:34:06.679Z,9.90
2023-04-16T23:36:33.765Z,9.80
2023-04-16T23:39:01.577Z,9.80
2023-04-16T23:41:28.944Z,9.80
2023-04-16T23:43:56.726Z,9.80
2023-04-16T23:46:24.279Z,9.80
2023-04-16T23:48:52.885Z,9.80
2023-04-16T23:51:19.928Z,9.80
2023-04-16T23:53:47.484Z,9.70
2023-04-16T23:56:15.397Z,9.70
2023-04-16T23:58:43.178Z,9.70
